Glennallen, AK (99588)

9:01 AM AKDT on July 29, 2014 (GMT -0800)
AKDOT Glenn Highway @ MP 176.6 (MGHYA2) Elev 2112 ft | 62.11 °N, 145.85 °W | Change Station

Current weather conditions updated 46 minutes ago

Clear
Clear
54 °F
Feels Like 54 °F
N
6
Wind Variable Wind from West
Gusts 9.0 mph

Today is forecast to be nearly the same temperature as yesterday.

Today
High -- | Low -- °F
--% Chance of Precip.
Yesterday
High -- | Low -- °F
Precip. -- in
5:03 AM 10:38 PM
Waxing Crescent, 7% visible
Pressure 29.95 in
Visibility 10.0 miles
Clouds Clear
Dew Point 46 °F
Humidity 73%
Rainfall -999.00 in
Snow Depth Not available.
UV 2 out of 12
Pollen Not available.
Air Quality Not available.
Flu Activity Not available.
METAR PAGK 291653Z AUTO 11004KT 10SM CLR 13/08 A2994 RMK AO2 SLP140 T01280083 TSNO

More Conditions Fewer Conditions

Pressure 29.95 in
Visibility 10.0 miles
Clouds Clear
Dew Point 46 °F
Humidity 73%
Rainfall -999.00 in
Snow Depth Not available.
UV 2 out of 12
Pollen Not available.
Air Quality Not available.
Flu Activity Not available.
METAR PAGK 291653Z AUTO 11004KT 10SM CLR 13/08 A2994 RMK AO2 SLP140 T01280083 TSNO

More Conditions Fewer Conditions

10-Day Weather Forecast

Almanac

Astronomy

Jul. 29, 2014 Rise Set
Actual Time 5:03 AM AKDT 10:38 PM AKDT
Civil Twilight 3:48 AM AKDT 11:51 PM AKDT
Nautical Twilight Sun does not rise Sun does not rise
Astronomical Twilight Sun does not rise Sun does not rise
Moon 9:01 AM AKDT 10:34 PM AKDT
Length of Visible Light 20h 03m
Length of Day
17h 34m
Tomorrow will be 5m 28s shorter.
Waxing Crescent, 7% of the Moon is Illuminated
Today
Waxing Crescent
Aug 3
First Quarter
Aug 10
Full
Aug 17
Last Quarter
Aug 25
New

Today's Extremes

State Highs State Lows

Community

WunderPhotos

Upload Photos

1,738,786 photos uploaded!

Nearby

Snow Depth

Station Depth Elevation
Upper Tsaina River 0 in 1750 ft
Moraine 0 in 2100 ft
Susitna Valley High 109 in 375 ft
Indian Pass 1 in 2300 ft
Turnagain Pass 0 in 1880 ft

Earthquake Activity

City Distance Mag. Time & Date
No recent earthquake activity has been reported nearby.
Minimum magnitude displayed is 2.5.

Coastal Water Temperatures

Place Temperature
No Stations Reporting

Nearby Weather Stations

Station Location Temp. Dew Point Humidity Wind Precip. Elev Updated Type
AKDOT Glenn Highway @ MP 176.6, 54 °F 46 °F 73% West  at  6 mph 0.00 in / hr 2112 ft 12:15 PM EDT MADIS

Show More Stations Show Fewer Stations